Angle Inlet, Minnesota
Current Conditions -  °F | °C
As of 9:54 PM on Wednesday 22 Oct 2014 (Local Time) from KFGN Reporting Station
Moderate Rain Moderate Rain  
Wind Chill: 52°   Ceiling: 3300
Heat Index: 52°   Visibility: 10mi
Dew Point: 46°   Wind: 18mph
Humidity: 82%   Direction: 170°S
Pressure: 29.84"   Gusts: NA
Location:  49.35°N, 95.08°W
Report Text: KFGN 230254Z AUTO 17016KT 10SM RA OVC033 11/08 A2984 RMK AO2
Loading
Personal Weather Stations






























Interactive Weather Map
Tropical Storm Tracking
New forecast layout! Learn more

10-Day Weather Forecast

Advertisements
Track Severe Weather on mobile